Terminal Aerodrome Forecast
Issued by NWS

Home | Current Version | Previous Version | Text Only | Print | Product List | Glossary On
Versions: 1 2 3 4 5 6 7 8 9 10 11 12 13 14 15 16 17
000
FTUS44 KCRP 301725
TAFALI
TAF
KALI 301725Z 3018/3118 18005KT P6SM FEW020 BKN250
     FM302100 13012G18KT P6SM FEW040
     FM310200 15007KT P6SM FEW005 SCT060
     FM310800 VRB03KT 5SM BR SCT001
      TEMPO 3111/3113 2SM BR
     FM311400 15005KT P6SM SCT020=

USA.gov is the U.S. government's official web portal to all federal, state and local government web resources and services.